Main page
METAR-TAF:

METAR-TAF

Airports :

N'Djamena International Airport

N'Djamena, Chad

latitude: 12-08N, longitude: 015-02E, elevation: 295 m

Current weather observation

The report was made 56 minutes ago, at 00:00 UTC
Wind 6 kt from the North/Northwest
Temperature 17°C
Humidity 27%
Pressure 1015 hPa
Visibility 10 km or more
no clouds below 1500 m and no cumulonimbus

METAR: FTTJ 160000Z 33006KT CAVOK 17/M02 Q1015 NOSIG

Time: 01:56 (00:56 UTC)

Forecast

The report was made 1 hour and 56 minutes ago, at 23:00 UTC
Forecast valid from 16 at 00 UTC to 17 at 06 UTC
Wind 7 kt from the North
Visibility: 8000 m
Temporary
from 16 at 05 UTC to 16 at 07 UTC
Visibility: 4000 m
widespread dust

TAF: FTTJ 152300Z 1600/1706 01007KT 8000 NSC TEMPO 1605/1607 4000 DU

Weather observations and forecasts of more than 4000 airports (METAR and TAF reports).

The available stations are represented by yellow and red dots on the map.

Hover mouse over dot to see the name of the station.

Then click to see weather observations and forecasts.

To change the map : click on the green buttons with a black cross to zoom in, on the green button with a dash to zoom out, or on the green arrows for adjacent maps.


METAR-TAF: